Time;durP1;ratioP1;P1;durP2;ratioP2;P2;SDS_P1;SDS_P2;PMS_P1;PMS_P2;Temp;Humidity;BMP_temperature;BMP_pressure;BME280_temperature;BME280_humidity;BME280_pressure;Samples;Min_cycle;Max_cycle;Signal;HPM_P1;HPM_P2
2024/04/05 00:01:48;;;;;;;13.18;2.75;;;13.40;99.90;;;;;;5048911;28;20439;-68
2024/04/05 00:04:14;;;;;;;18.83;3.53;;;13.40;99.90;;;;;;5053840;28;20033;-65
2024/04/05 00:06:40;;;;;;;14.98;3.35;;;13.40;99.90;;;;;;5052710;28;20363;-62
2024/04/05 00:09:06;;;;;;;13.75;3.33;;;13.50;99.90;;;;;;5053977;28;20059;-62
2024/04/05 00:11:32;;;;;;;12.63;3.25;;;13.50;99.90;;;;;;5053399;28;20746;-67
2024/04/05 00:13:58;;;;;;;15.40;3.50;;;13.50;99.90;;;;;;5053782;28;20041;-61
2024/04/05 00:16:23;;;;;;;13.80;3.42;;;13.50;99.90;;;;;;5053069;28;20041;-62
2024/04/05 00:18:50;;;;;;;15.32;3.30;;;13.40;99.90;;;;;;5053853;28;20044;-61
2024/04/05 00:21:16;;;;;;;14.93;3.67;;;13.40;99.90;;;;;;5070789;28;20386;-62
2024/04/05 00:23:41;;;;;;;17.60;3.33;;;13.50;99.90;;;;;;5053018;28;20057;-61
2024/04/05 00:26:08;;;;;;;17.20;3.17;;;13.50;99.90;;;;;;5053637;28;20048;-67
2024/04/05 00:28:35;;;;;;;17.90;3.00;;;13.50;99.90;;;;;;5053380;28;20051;-67
2024/04/05 00:31:01;;;;;;;17.38;3.22;;;13.50;99.90;;;;;;5053510;28;20041;-65
2024/04/05 00:33:27;;;;;;;17.33;3.30;;;13.50;99.90;;;;;;5053275;28;20147;-62
2024/04/05 00:35:53;;;;;;;12.30;2.92;;;13.50;99.90;;;;;;5053140;28;20044;-61
2024/04/05 00:38:19;;;;;;;11.40;2.88;;;13.50;99.90;;;;;;5053266;28;20041;-62
2024/04/05 00:40:45;;;;;;;12.27;3.15;;;13.60;99.90;;;;;;5053240;28;20069;-68
2024/04/05 00:43:11;;;;;;;18.40;3.38;;;13.50;99.90;;;;;;5053385;28;20426;-65
2024/04/05 00:45:37;;;;;;;12.57;2.80;;;13.60;99.90;;;;;;5053159;28;20041;-68
2024/04/05 00:48:03;;;;;;;15.73;3.30;;;13.60;99.90;;;;;;5052850;28;20044;-61
2024/04/05 00:50:30;;;;;;;17.75;3.30;;;13.60;99.90;;;;;;5052769;28;20083;-62
2024/04/05 00:52:56;;;;;;;14.25;3.08;;;13.50;99.90;;;;;;5052689;28;20510;-63
2024/04/05 00:55:22;;;;;;;12.38;2.85;;;13.60;99.90;;;;;;5052927;28;20041;-62
2024/04/05 00:57:47;;;;;;;14.75;3.30;;;13.60;99.90;;;;;;5052693;28;20486;-62
2024/04/05 01:00:14;;;;;;;14.30;3.25;;;13.60;99.90;;;;;;5052609;28;20036;-62
2024/04/05 01:02:40;;;;;;;17.02;3.28;;;13.60;99.90;;;;;;5052741;28;20505;-62
2024/04/05 01:05:06;;;;;;;12.85;2.88;;;13.60;99.90;;;;;;5052776;28;20040;-62
2024/04/05 01:07:31;;;;;;;13.73;2.97;;;13.60;99.90;;;;;;5052519;28;20044;-62
2024/04/05 01:09:58;;;;;;;16.88;3.55;;;13.60;99.90;;;;;;5052703;28;20052;-62
2024/04/05 01:12:24;;;;;;;18.00;3.05;;;13.60;99.90;;;;;;5052477;28;20387;-62
2024/04/05 01:14:49;;;;;;;18.98;3.13;;;13.60;99.90;;;;;;5052720;28;20052;-62
2024/04/05 01:17:15;;;;;;;16.85;3.75;;;13.60;99.90;;;;;;5052095;28;20136;-62
2024/04/05 01:19:41;;;;;;;12.55;3.00;;;13.60;99.90;;;;;;5052074;28;20048;-62
2024/04/05 01:22:11;;;;;;;15.00;2.97;;;13.60;99.90;;;;;;5052613;28;20084;-62
2024/04/05 01:24:36;;;;;;;14.85;3.78;;;13.60;99.90;;;;;;5052560;28;20053;-62
2024/04/05 01:27:02;;;;;;;11.40;2.88;;;13.60;99.90;;;;;;5052153;28;20045;-61
2024/04/05 01:29:28;;;;;;;19.15;3.20;;;13.60;99.90;;;;;;5052353;28;20060;-61
2024/04/05 01:31:54;;;;;;;19.48;3.45;;;13.50;99.90;;;;;;5052085;28;20106;-61
2024/04/05 01:34:19;;;;;;;15.27;3.15;;;13.50;99.90;;;;;;5052147;28;20045;-66
2024/04/05 01:36:45;;;;;;;15.80;3.65;;;13.50;99.90;;;;;;5052049;28;20080;-67
2024/04/05 01:39:11;;;;;;;18.88;3.17;;;13.50;99.90;;;;;;5052208;28;20082;-67
2024/04/05 01:41:37;;;;;;;18.15;3.50;;;13.50;99.90;;;;;;5052099;28;20028;-67
2024/04/05 01:44:03;;;;;;;13.65;2.85;;;13.50;99.90;;;;;;5052017;28;20402;-67
2024/04/05 01:46:29;;;;;;;16.05;3.80;;;13.40;99.90;;;;;;5051723;28;20044;-67
2024/04/05 01:48:55;;;;;;;16.15;3.72;;;13.40;99.90;;;;;;5052001;28;20037;-61
2024/04/05 01:51:20;;;;;;;14.82;2.92;;;13.40;99.90;;;;;;5052057;28;20041;-61
2024/04/05 01:53:46;;;;;;;16.67;4.03;;;13.30;99.90;;;;;;5051865;28;20489;-61
2024/04/05 01:56:12;;;;;;;19.08;3.40;;;13.30;99.90;;;;;;5052140;28;20116;-66
2024/04/05 01:58:38;;;;;;;15.82;3.00;;;13.40;99.90;;;;;;5052167;28;20044;-66
2024/04/05 02:01:03;;;;;;;16.17;3.65;;;13.30;99.90;;;;;;5051899;28;20045;-68
2024/04/05 02:03:29;;;;;;;14.90;3.55;;;13.30;99.90;;;;;;5052230;28;20082;-62
2024/04/05 02:05:55;;;;;;;14.18;3.28;;;13.40;99.90;;;;;;5051908;28;20470;-66
2024/04/05 02:08:21;;;;;;;14.98;3.22;;;13.30;99.90;;;;;;5051773;28;20386;-67
2024/04/05 02:10:47;;;;;;;20.50;3.67;;;13.30;99.90;;;;;;5052028;28;20143;-66
2024/04/05 02:13:12;;;;;;;21.33;3.97;;;13.30;99.90;;;;;;5051618;28;20043;-67
2024/04/05 02:15:38;;;;;;;17.15;3.72;;;13.20;99.90;;;;;;5051544;28;20077;-67
2024/04/05 02:18:08;;;;;;;17.38;4.43;;;13.20;99.90;;;;;;5051353;28;20056;-68
2024/04/05 02:20:34;;;;;;;17.23;3.22;;;13.20;99.90;;;;;;5052198;28;20033;-67
2024/04/05 02:22:59;;;;;;;12.93;3.08;;;13.20;99.90;;;;;;5052164;28;20474;-67
2024/04/05 02:25:26;;;;;;;14.45;3.53;;;13.10;99.90;;;;;;5068524;28;20037;-62
2024/04/05 02:27:51;;;;;;;15.15;3.08;;;13.10;99.90;;;;;;5051631;28;20037;-64
2024/04/05 02:30:17;;;;;;;15.23;3.25;;;13.10;99.90;;;;;;5052716;28;20504;-66
2024/04/05 02:32:43;;;;;;;17.58;3.33;;;13.10;99.90;;;;;;5055691;28;20060;-66
2024/04/05 02:35:09;;;;;;;22.63;4.00;;;13.10;99.90;;;;;;5055799;28;20163;-66
2024/04/05 02:37:34;;;;;;;20.92;4.32;;;13.00;99.90;;;;;;5055211;28;20037;-66
2024/04/05 02:40:00;;;;;;;17.10;3.55;;;13.00;99.90;;;;;;5055570;28;20087;-66
2024/04/05 02:42:26;;;;;;;14.05;3.22;;;13.00;99.90;;;;;;5055430;28;20045;-67
2024/04/05 02:44:52;;;;;;;15.93;2.90;;;12.90;99.90;;;;;;5055373;28;20166;-67
2024/04/05 02:47:17;;;;;;;14.88;3.38;;;12.90;99.90;;;;;;5055323;28;20140;-66
2024/04/05 02:49:43;;;;;;;17.73;3.60;;;12.90;99.90;;;;;;5054975;28;20094;-67
2024/04/05 02:52:09;;;;;;;17.85;3.53;;;12.90;99.90;;;;;;5055328;28;20097;-66
2024/04/05 02:54:35;;;;;;;17.35;4.07;;;12.80;99.90;;;;;;5055027;28;20041;-66
2024/04/05 02:57:00;;;;;;;15.15;3.28;;;12.80;99.90;;;;;;5054887;28;20033;-66
2024/04/05 02:59:26;;;;;;;19.83;3.88;;;12.80;99.90;;;;;;5071553;28;20069;-67
2024/04/05 03:01:52;;;;;;;16.45;3.30;;;12.80;99.90;;;;;;5055232;28;20037;-66
2024/04/05 03:04:18;;;;;;;16.02;3.25;;;12.80;99.90;;;;;;5054976;28;20041;-66
2024/04/05 03:06:43;;;;;;;17.35;3.40;;;12.80;99.90;;;;;;5054546;28;20084;-66
2024/04/05 03:09:09;;;;;;;16.15;3.42;;;12.80;99.90;;;;;;5054832;28;20041;-66
2024/04/05 03:11:35;;;;;;;15.68;3.75;;;12.80;99.90;;;;;;5054803;28;20052;-66
2024/04/05 03:14:01;;;;;;;14.40;3.35;;;12.80;99.90;;;;;;5054902;28;20041;-66
2024/04/05 03:16:26;;;;;;;14.68;2.88;;;12.80;99.90;;;;;;5054369;28;20089;-66
2024/04/05 03:18:52;;;;;;;16.08;2.95;;;12.80;99.90;;;;;;5071714;28;20072;-66
2024/04/05 03:21:18;;;;;;;14.48;3.42;;;12.80;99.90;;;;;;5055236;28;20072;-66
2024/04/05 03:23:44;;;;;;;17.98;4.05;;;12.70;99.90;;;;;;5054918;28;20037;-66
2024/04/05 03:26:10;;;;;;;13.60;2.78;;;12.70;99.90;;;;;;5054804;28;20036;-66
2024/04/05 03:28:35;;;;;;;14.52;2.95;;;12.70;99.90;;;;;;5054628;28;20079;-66
2024/04/05 03:31:01;;;;;;;13.77;3.00;;;12.70;99.90;;;;;;5054970;28;20049;-66
2024/04/05 03:33:27;;;;;;;15.88;3.40;;;12.70;99.90;;;;;;5054812;28;20073;-66
2024/04/05 03:35:53;;;;;;;13.48;3.20;;;12.70;99.90;;;;;;5054601;28;20115;-66
2024/04/05 03:38:18;;;;;;;14.57;3.20;;;12.70;99.90;;;;;;5054816;28;20490;-66
2024/04/05 03:40:44;;;;;;;16.77;2.92;;;12.70;99.90;;;;;;5054712;28;20107;-66
2024/04/05 03:43:10;;;;;;;13.77;3.13;;;12.70;99.90;;;;;;5054413;28;20048;-66
2024/04/05 03:45:36;;;;;;;15.90;3.33;;;12.70;99.90;;;;;;5054648;28;20128;-66
2024/04/05 03:48:02;;;;;;;14.20;3.10;;;12.70;99.90;;;;;;5054293;28;20071;-67
2024/04/05 03:50:28;;;;;;;10.98;3.22;;;12.70;99.90;;;;;;5054349;28;20068;-66
2024/04/05 03:52:54;;;;;;;14.32;3.80;;;12.70;99.90;;;;;;5054184;28;20501;-66
2024/04/05 03:55:20;;;;;;;15.45;3.20;;;12.70;99.90;;;;;;5054027;28;20037;-66
2024/04/05 03:57:47;;;;;;;12.57;3.13;;;12.60;99.90;;;;;;5054314;28;20482;-66
2024/04/05 04:00:13;;;;;;;12.73;3.03;;;12.60;99.90;;;;;;5054343;28;20430;-66
2024/04/05 04:02:39;;;;;;;17.75;2.80;;;12.60;99.90;;;;;;5054032;28;20033;-66
2024/04/05 04:05:05;;;;;;;17.70;3.38;;;12.60;99.90;;;;;;5053708;28;20421;-66
2024/04/05 04:07:30;;;;;;;16.27;3.22;;;12.60;99.90;;;;;;5053554;28;20045;-66
2024/04/05 04:09:56;;;;;;;14.60;3.22;;;12.60;99.90;;;;;;5054012;28;20438;-66
2024/04/05 04:12:22;;;;;;;15.75;3.25;;;12.70;99.90;;;;;;5053787;28;20045;-67
2024/04/05 04:14:48;;;;;;;14.50;2.75;;;12.60;99.90;;;;;;5053776;28;20063;-66
2024/04/05 04:17:15;;;;;;;15.68;4.18;;;12.60;99.90;;;;;;5053168;28;20502;-67
2024/04/05 04:19:41;;;;;;;10.43;2.60;;;12.60;99.90;;;;;;5053828;28;20065;-67
2024/04/05 04:22:07;;;;;;;13.23;3.08;;;12.60;99.90;;;;;;5053703;28;20044;-67
2024/04/05 04:24:33;;;;;;;13.80;2.78;;;12.60;99.90;;;;;;5053835;28;20079;-66
2024/04/05 04:26:58;;;;;;;12.77;2.78;;;12.60;99.90;;;;;;5053610;28;20132;-66
2024/04/05 04:29:25;;;;;;;10.07;2.30;;;12.60;99.90;;;;;;5053592;28;20075;-66
2024/04/05 04:31:50;;;;;;;12.45;2.90;;;12.60;99.90;;;;;;5054034;28;20045;-66
2024/04/05 04:34:16;;;;;;;15.38;2.85;;;12.60;99.90;;;;;;5053724;28;20059;-66
2024/04/05 04:36:42;;;;;;;12.18;2.70;;;12.60;99.90;;;;;;5053376;28;20389;-66
2024/04/05 04:39:08;;;;;;;13.25;3.05;;;12.60;99.90;;;;;;5053333;28;20036;-67
2024/04/05 04:41:34;;;;;;;9.30;2.42;;;12.60;99.90;;;;;;5053670;28;20041;-67
2024/04/05 04:44:00;;;;;;;16.65;2.90;;;12.60;99.90;;;;;;5053262;28;20398;-67
2024/04/05 04:46:25;;;;;;;15.05;3.03;;;12.60;99.90;;;;;;5053264;28;20087;-62
2024/04/05 04:48:51;;;;;;;11.57;2.72;;;12.70;99.90;;;;;;5052989;28;20064;-62
2024/04/05 04:51:17;;;;;;;16.35;3.40;;;12.70;99.90;;;;;;5053123;28;20072;-62
2024/04/05 04:53:43;;;;;;;14.57;2.72;;;12.70;99.90;;;;;;5052560;28;20037;-62
2024/04/05 04:56:11;;;;;;;11.63;2.80;;;12.70;99.90;;;;;;5052762;28;20041;-62
2024/04/05 04:58:36;;;;;;;15.75;2.78;;;12.80;99.90;;;;;;5052887;28;20494;-67
2024/04/05 05:01:02;;;;;;;13.38;2.83;;;12.80;99.90;;;;;;5052841;28;20039;-67
2024/04/05 05:03:28;;;;;;;14.23;2.83;;;12.90;99.90;;;;;;5052463;28;20126;-67
2024/04/05 05:05:54;;;;;;;12.57;2.53;;;12.90;99.90;;;;;;5052639;28;20544;-67
2024/04/05 05:08:20;;;;;;;14.10;2.95;;;12.90;99.90;;;;;;5052749;28;20041;-68
2024/04/05 05:10:46;;;;;;;9.95;2.58;;;12.90;99.90;;;;;;5052601;28;20045;-68
2024/04/05 05:13:12;;;;;;;13.80;3.08;;;12.90;99.90;;;;;;5052553;28;20044;-68
2024/04/05 05:15:37;;;;;;;15.63;3.20;;;12.90;99.90;;;;;;5052657;28;20060;-68
2024/04/05 05:18:04;;;;;;;14.32;2.85;;;12.90;99.90;;;;;;5051661;28;20118;-67
2024/04/05 05:20:30;;;;;;;13.48;2.58;;;12.90;99.90;;;;;;5051733;28;20063;-68
2024/04/05 05:22:55;;;;;;;14.90;2.92;;;12.90;99.90;;;;;;5051578;28;20048;-67
2024/04/05 05:25:21;;;;;;;15.07;3.03;;;12.90;99.90;;;;;;5051639;28;20037;-67
2024/04/05 05:27:47;;;;;;;11.75;3.30;;;12.90;99.90;;;;;;5051337;28;20552;-67
2024/04/05 05:30:13;;;;;;;12.80;2.63;;;12.90;99.90;;;;;;5051317;28;20041;-67
2024/04/05 05:32:39;;;;;;;13.60;3.10;;;12.90;99.90;;;;;;5051458;28;20071;-67
2024/04/05 05:35:04;;;;;;;11.27;3.05;;;12.90;99.90;;;;;;5051553;28;20366;-67
2024/04/05 05:37:30;;;;;;;13.80;2.70;;;12.90;99.90;;;;;;5051428;28;20471;-67
2024/04/05 05:39:56;;;;;;;13.82;2.95;;;12.90;99.90;;;;;;5051916;28;20045;-62
2024/04/05 05:42:22;;;;;;;12.57;2.63;;;12.90;99.90;;;;;;5051624;28;20079;-62
2024/04/05 05:44:48;;;;;;;14.02;3.10;;;12.90;99.90;;;;;;5051409;28;20045;-62
2024/04/05 05:47:14;;;;;;;11.80;2.78;;;12.80;99.90;;;;;;5051147;28;20090;-62
2024/04/05 05:49:39;;;;;;;14.35;2.88;;;12.70;99.90;;;;;;5050994;28;20482;-62
2024/04/05 05:52:08;;;;;;;12.60;2.92;;;12.60;99.90;;;;;;5051130;28;20041;-62
2024/04/05 05:54:34;;;;;;;11.43;2.85;;;12.70;99.90;;;;;;5051044;28;20482;-62
2024/04/05 05:57:00;;;;;;;10.50;3.20;;;12.60;99.90;;;;;;5050690;28;20044;-62
2024/04/05 05:59:26;;;;;;;12.80;2.97;;;12.60;99.90;;;;;;5067321;28;20064;-62
2024/04/05 06:01:51;;;;;;;11.35;2.58;;;12.60;99.90;;;;;;5050887;28;20133;-62
2024/04/05 06:04:17;;;;;;;9.60;2.50;;;12.60;99.90;;;;;;5050368;28;20506;-62
2024/04/05 06:06:43;;;;;;;11.80;2.72;;;12.60;99.90;;;;;;5050742;28;20083;-62
2024/04/05 06:09:09;;;;;;;11.13;2.45;;;12.60;99.90;;;;;;5051007;28;20120;-62
2024/04/05 06:11:35;;;;;;;14.80;3.15;;;12.60;99.90;;;;;;5050698;28;20128;-62
2024/04/05 06:14:01;;;;;;;9.30;2.10;;;12.60;99.90;;;;;;5050689;28;20037;-62
2024/04/05 06:16:27;;;;;;;13.10;2.77;;;12.60;99.90;;;;;;5009039;28;1187355;-62
2024/04/05 06:18:53;;;;;;;11.13;2.88;;;12.60;99.90;;;;;;5051750;28;20486;-62
2024/04/05 06:21:18;;;;;;;10.35;2.50;;;12.60;99.90;;;;;;5051905;28;20056;-62
2024/04/05 06:23:44;;;;;;;10.40;2.30;;;12.60;99.90;;;;;;5051605;28;20128;-63
2024/04/05 06:26:10;;;;;;;7.88;2.22;;;12.50;99.90;;;;;;5051908;28;20041;-62
2024/04/05 06:28:36;;;;;;;9.85;2.10;;;12.40;99.90;;;;;;5051827;28;20490;-62
2024/04/05 06:31:02;;;;;;;7.25;1.75;;;12.40;99.90;;;;;;5051564;28;20490;-63
2024/04/05 06:33:29;;;;;;;4.93;1.50;;;12.30;99.90;;;;;;5051623;28;20052;-63
2024/04/05 06:35:54;;;;;;;7.10;1.60;;;12.30;99.90;;;;;;5051215;28;20106;-63
2024/04/05 06:38:20;;;;;;;6.93;1.67;;;12.30;99.90;;;;;;5051417;28;20537;-66
2024/04/05 06:40:46;;;;;;;8.80;1.80;;;12.30;99.90;;;;;;5051399;28;20036;-67
2024/04/05 06:43:12;;;;;;;7.60;1.88;;;12.30;99.90;;;;;;5051401;28;20052;-68
2024/04/05 06:45:38;;;;;;;6.93;1.80;;;12.30;99.90;;;;;;5051235;28;20033;-67
2024/04/05 06:48:04;;;;;;;7.13;1.60;;;12.30;99.90;;;;;;5051002;28;20049;-66
2024/04/05 06:50:30;;;;;;;5.55;1.85;;;12.30;99.90;;;;;;5051522;28;20464;-68
2024/04/05 06:52:58;;;;;;;5.80;1.60;;;12.40;99.90;;;;;;5051288;28;20041;-68
2024/04/05 06:55:23;;;;;;;6.90;1.90;;;12.40;99.90;;;;;;5051332;28;20123;-66
2024/04/05 06:57:49;;;;;;;8.05;1.50;;;12.40;99.90;;;;;;5050905;28;20114;-68
2024/04/05 07:00:15;;;;;;;6.60;1.75;;;12.30;99.90;;;;;;5051379;28;20041;-67
2024/04/05 07:02:41;;;;;;;4.60;1.30;;;12.40;99.90;;;;;;5050997;28;20052;-67
2024/04/05 07:05:07;;;;;;;6.72;2.20;;;12.40;99.90;;;;;;5050960;28;20037;-67
2024/04/05 07:07:32;;;;;;;5.82;1.80;;;12.40;99.90;;;;;;5051048;28;20445;-67
2024/04/05 07:09:58;;;;;;;6.15;1.63;;;12.40;99.90;;;;;;5051269;28;20081;-67
2024/04/05 07:12:24;;;;;;;5.10;1.48;;;12.40;99.90;;;;;;5050735;28;20041;-66
2024/04/05 07:14:50;;;;;;;5.35;1.40;;;12.40;99.90;;;;;;5050735;28;20037;-68
2024/04/05 07:17:15;;;;;;;4.15;1.15;;;12.40;99.90;;;;;;5053040;28;20371;-67
2024/04/05 07:19:41;;;;;;;3.85;1.10;;;12.40;99.90;;;;;;5054473;28;20047;-67
2024/04/05 07:22:09;;;;;;;5.05;1.35;;;12.40;99.90;;;;;;5054367;28;20040;-67
2024/04/05 07:24:34;;;;;;;6.65;1.58;;;12.40;99.90;;;;;;5054502;28;20033;-66
2024/04/05 07:27:00;;;;;;;4.00;1.30;;;12.40;99.90;;;;;;5054338;28;20041;-66
2024/04/05 07:29:26;;;;;;;3.15;1.35;;;12.40;99.90;;;;;;5054650;28;20406;-67
2024/04/05 07:31:53;;;;;;;3.25;1.00;;;12.40;99.90;;;;;;5054314;28;20041;-67
2024/04/05 07:34:19;;;;;;;5.45;1.40;;;12.40;99.90;;;;;;5054660;28;20099;-67
2024/04/05 07:36:45;;;;;;;3.97;1.27;;;12.40;99.90;;;;;;5054622;28;20047;-67
2024/04/05 07:39:12;;;;;;;5.70;1.20;;;12.40;99.90;;;;;;5054518;28;20045;-68
2024/04/05 07:41:37;;;;;;;7.80;1.63;;;12.40;99.90;;;;;;5054407;28;20041;-68
2024/04/05 07:44:03;;;;;;;7.47;1.98;;;12.50;99.90;;;;;;5054150;28;20423;-66
2024/04/05 07:46:29;;;;;;;9.25;2.35;;;12.60;99.90;;;;;;5053861;28;20443;-67
2024/04/05 07:48:55;;;;;;;9.18;2.28;;;12.70;99.90;;;;;;5054025;28;20439;-64
2024/04/05 07:51:21;;;;;;;9.93;2.15;;;12.70;99.90;;;;;;5054403;28;20048;-67
2024/04/05 07:53:47;;;;;;;11.82;2.78;;;12.80;99.90;;;;;;5053815;28;20449;-66
2024/04/05 07:56:13;;;;;;;10.23;2.00;;;12.80;99.90;;;;;;5053667;28;20490;-67
2024/04/05 07:58:39;;;;;;;9.43;2.85;;;12.90;99.90;;;;;;5053651;28;20417;-68
2024/04/05 08:01:07;;;;;;;10.73;2.58;;;12.90;99.90;;;;;;5052705;28;20037;-67
2024/04/05 08:03:33;;;;;;;15.98;2.72;;;13.00;99.90;;;;;;5047225;28;20044;-67
2024/04/05 08:05:59;;;;;;;14.27;2.80;;;13.00;99.90;;;;;;5053636;28;20029;-70
2024/04/05 08:08:25;;;;;;;10.75;2.83;;;13.10;99.90;;;;;;5053480;28;20041;-63
2024/04/05 08:10:51;;;;;;;8.82;2.58;;;13.10;99.90;;;;;;5049177;28;20028;-64
2024/04/05 08:13:17;;;;;;;15.02;2.60;;;13.10;99.90;;;;;;5050631;28;20063;-64
2024/04/05 08:15:42;;;;;;;9.20;2.53;;;13.10;99.90;;;;;;5069747;28;20041;-64
2024/04/05 08:18:08;;;;;;;11.07;2.60;;;13.20;99.90;;;;;;5069530;28;20052;-64
2024/04/05 08:20:34;;;;;;;12.80;2.92;;;13.20;99.90;;;;;;5068477;28;20433;-64
2024/04/05 08:23:00;;;;;;;15.38;3.20;;;13.20;99.90;;;;;;5052718;28;20128;-65
2024/04/05 08:25:26;;;;;;;15.73;2.78;;;13.20;99.90;;;;;;5052733;28;20044;-65
2024/04/05 08:27:52;;;;;;;15.27;3.83;;;13.20;99.90;;;;;;5052168;28;20102;-63
2024/04/05 08:30:18;;;;;;;15.57;4.00;;;13.30;99.90;;;;;;5052712;28;20470;-63
2024/04/05 08:32:44;;;;;;;14.43;2.97;;;13.30;99.90;;;;;;5052840;28;20079;-63
2024/04/05 08:35:09;;;;;;;13.80;3.10;;;13.40;99.90;;;;;;5052681;28;20083;-62
2024/04/05 08:37:35;;;;;;;14.45;3.10;;;13.40;99.90;;;;;;5052720;28;20044;-62
2024/04/05 08:40:01;;;;;;;16.38;3.30;;;13.40;99.90;;;;;;5052310;28;20059;-63
2024/04/05 08:42:27;;;;;;;20.33;3.70;;;13.40;99.90;;;;;;5051717;28;20044;-63
2024/04/05 08:44:53;;;;;;;17.73;3.38;;;13.40;99.90;;;;;;5052433;28;20037;-63
2024/04/05 08:47:19;;;;;;;15.18;2.95;;;13.40;99.90;;;;;;5052546;28;20452;-63
2024/04/05 08:49:44;;;;;;;16.23;3.67;;;13.50;99.90;;;;;;5052561;28;20040;-63
2024/04/05 08:52:10;;;;;;;17.33;3.20;;;13.60;99.90;;;;;;5036116;28;20033;-63
2024/04/05 08:54:36;;;;;;;16.90;3.88;;;13.70;99.90;;;;;;5052794;28;20064;-63
2024/04/05 08:57:02;;;;;;;20.02;3.58;;;13.70;99.90;;;;;;5052166;28;20370;-64
2024/04/05 08:59:33;;;;;;;16.65;3.08;;;13.80;99.90;;;;;;5052496;28;20073;-65
2024/04/05 09:01:59;;;;;;;18.40;4.30;;;13.90;99.90;;;;;;5052236;28;20087;-65
2024/04/05 09:04:28;;;;;;;17.63;4.00;;;13.90;99.90;;;;;;5035645;28;20435;-63
2024/04/05 09:06:53;;;;;;;23.00;4.22;;;14.00;99.90;;;;;;5052066;28;20486;-65
2024/04/05 09:09:19;;;;;;;14.35;3.95;;;14.00;99.90;;;;;;5052691;28;20115;-63
2024/04/05 09:11:45;;;;;;;21.52;4.15;;;14.00;99.90;;;;;;5052245;28;20478;-63
2024/04/05 09:14:11;;;;;;;16.65;3.67;;;14.00;99.90;;;;;;5052163;28;20033;-63
2024/04/05 09:16:37;;;;;;;17.27;4.15;;;14.00;99.90;;;;;;5051890;28;20072;-63
2024/04/05 09:19:03;;;;;;;19.92;3.67;;;13.90;99.90;;;;;;5035250;28;20500;-63
2024/04/05 09:21:29;;;;;;;19.65;3.97;;;13.90;99.90;;;;;;5051755;28;20037;-63
2024/04/05 09:23:57;;;;;;;17.60;4.45;;;13.90;99.90;;;;;;5051897;28;20041;-63
2024/04/05 09:26:25;;;;;;;16.50;3.88;;;13.90;99.90;;;;;;5051956;28;20040;-63
2024/04/05 09:28:50;;;;;;;20.08;4.10;;;13.90;99.90;;;;;;5052102;28;20052;-64
2024/04/05 09:31:16;;;;;;;17.77;4.57;;;13.90;99.90;;;;;;5035600;28;20037;-65
2024/04/05 09:33:43;;;;;;;22.05;3.78;;;13.90;99.90;;;;;;5051868;28;20513;-70
2024/04/05 09:36:08;;;;;;;18.55;4.68;;;14.00;99.90;;;;;;5051944;28;20048;-70
2024/04/05 09:38:34;;;;;;;18.92;4.20;;;14.00;99.90;;;;;;5051618;28;20045;-63
2024/04/05 09:41:00;;;;;;;23.88;4.53;;;14.00;99.90;;;;;;5051986;28;20045;-63
2024/04/05 09:43:26;;;;;;;25.95;4.07;;;13.90;99.90;;;;;;5051818;28;20087;-62
2024/04/05 09:45:52;;;;;;;15.00;3.88;;;13.90;99.90;;;;;;5051608;28;20037;-62
2024/04/05 09:48:20;;;;;;;22.77;3.97;;;13.90;99.90;;;;;;5051536;28;20541;-63
2024/04/05 09:50:46;;;;;;;19.00;4.20;;;14.00;99.90;;;;;;5051453;28;20036;-63
2024/04/05 09:53:12;;;;;;;21.70;4.60;;;14.10;99.90;;;;;;5034716;28;20390;-66
2024/04/05 09:55:38;;;;;;;17.30;4.13;;;14.20;99.90;;;;;;5046253;28;20063;-68
2024/04/05 09:58:05;;;;;;;24.67;4.97;;;14.30;99.90;;;;;;5051416;28;20095;-64
2024/04/05 10:00:32;;;;;;;22.70;4.07;;;14.20;99.90;;;;;;5051534;28;20536;-61
2024/04/05 10:02:57;;;;;;;18.92;4.32;;;14.20;99.90;;;;;;5051540;28;20045;-62
2024/04/05 10:05:23;;;;;;;21.65;4.32;;;14.30;99.90;;;;;;5051401;28;20048;-62
2024/04/05 10:07:49;;;;;;;17.77;3.80;;;14.40;99.90;;;;;;5051555;28;20094;-62
2024/04/05 10:10:15;;;;;;;21.92;4.22;;;14.60;99.90;;;;;;5051336;28;20490;-61
2024/04/05 10:12:40;;;;;;;23.58;4.22;;;14.80;99.90;;;;;;5051300;28;20037;-61
2024/04/05 10:15:06;;;;;;;18.50;4.22;;;14.90;99.90;;;;;;5052115;28;20045;-62
2024/04/05 10:17:32;;;;;;;19.88;4.38;;;15.00;99.90;;;;;;5051513;28;20045;-61
2024/04/05 10:19:58;;;;;;;20.00;4.75;;;15.00;99.90;;;;;;5051401;28;20078;-62
2024/04/05 10:22:24;;;;;;;23.10;4.78;;;15.10;99.90;;;;;;5051795;28;20418;-69
2024/04/05 10:24:50;;;;;;;16.60;4.30;;;15.10;99.90;;;;;;5051849;28;20493;-70
2024/04/05 10:27:16;;;;;;;22.65;4.68;;;15.20;99.90;;;;;;5052184;28;20466;-70
2024/04/05 10:29:42;;;;;;;18.17;4.38;;;15.20;99.90;;;;;;5052055;28;20041;-68
2024/04/05 10:32:09;;;;;;;22.45;4.78;;;15.20;99.90;;;;;;5051714;28;20044;-63
2024/04/05 10:34:34;;;;;;;21.83;4.85;;;15.20;99.90;;;;;;5051429;28;20426;-64
2024/04/05 10:37:00;;;;;;;18.05;4.35;;;15.30;99.90;;;;;;5051645;28;20045;-64
2024/04/05 10:39:26;;;;;;;20.00;4.55;;;15.40;99.90;;;;;;5051835;28;20037;-63
2024/04/05 10:41:53;;;;;;;22.52;4.80;;;15.50;99.90;;;;;;5051518;28;20468;-64
2024/04/05 10:44:19;;;;;;;22.30;4.82;;;15.60;99.90;;;;;;5051538;28;20441;-64
2024/04/05 10:46:47;;;;;;;19.85;4.75;;;15.70;99.90;;;;;;5051243;28;20033;-63
2024/04/05 10:49:13;;;;;;;20.33;4.57;;;15.80;99.90;;;;;;5068457;28;20067;-64
2024/04/05 10:51:39;;;;;;;26.23;5.10;;;15.80;99.90;;;;;;5052855;28;20497;-63
2024/04/05 10:54:05;;;;;;;23.85;5.15;;;15.80;99.90;;;;;;5055510;28;20481;-63
2024/04/05 10:56:30;;;;;;;26.55;6.50;;;15.80;99.90;;;;;;5053975;28;20044;-63
2024/04/05 10:58:56;;;;;;;22.40;5.15;;;15.80;99.90;;;;;;5053842;28;20041;-63
2024/04/05 11:01:22;;;;;;;23.55;5.38;;;15.70;99.90;;;;;;5037501;28;21380;-63
2024/04/05 11:03:48;;;;;;;20.55;4.82;;;15.50;99.90;;;;;;5054527;28;20445;-63
2024/04/05 11:06:13;;;;;;;21.58;5.60;;;15.40;99.90;;;;;;5054256;28;20037;-63
2024/04/05 11:08:40;;;;;;;21.48;5.00;;;15.50;99.90;;;;;;5043524;28;20045;-63
2024/04/05 11:11:05;;;;;;;19.92;4.65;;;15.50;99.90;;;;;;5054630;28;20378;-63
2024/04/05 11:13:31;;;;;;;24.98;4.78;;;15.70;99.90;;;;;;5054298;28;20363;-63
2024/04/05 11:15:57;;;;;;;21.23;5.10;;;15.80;99.90;;;;;;5054533;28;20076;-63
2024/04/05 11:18:23;;;;;;;20.67;4.70;;;15.90;99.90;;;;;;5053845;28;20049;-62
2024/04/05 11:20:48;;;;;;;21.75;5.00;;;15.90;99.90;;;;;;5054464;28;20045;-63
2024/04/05 11:23:16;;;;;;;20.48;5.15;;;15.90;99.90;;;;;;5054599;28;20033;-64
2024/04/05 11:25:41;;;;;;;25.75;5.53;;;15.90;99.90;;;;;;5053753;28;20425;-63
2024/04/05 11:28:07;;;;;;;22.55;5.72;;;15.90;99.90;;;;;;5054270;28;20045;-63
2024/04/05 11:30:33;;;;;;;19.48;4.78;;;16.00;99.90;;;;;;5054171;28;20070;-63
2024/04/05 11:32:59;;;;;;;21.65;4.88;;;16.00;99.90;;;;;;5054360;28;20060;-67
2024/04/05 11:35:24;;;;;;;26.95;6.22;;;16.00;99.90;;;;;;5054174;28;20533;-68
2024/04/05 11:37:50;;;;;;;25.33;5.72;;;15.90;99.90;;;;;;5053525;28;20390;-67
2024/04/05 11:40:16;;;;;;;21.55;4.60;;;15.90;99.90;;;;;;5054052;28;20033;-67
2024/04/05 11:42:42;;;;;;;22.58;5.03;;;15.90;99.90;;;;;;5053619;28;20455;-64
2024/04/05 11:45:09;;;;;;;21.10;5.13;;;16.10;99.90;;;;;;5053842;28;20040;-63
2024/04/05 11:47:35;;;;;;;26.92;5.22;;;16.40;99.90;;;;;;5053176;28;20435;-63
2024/04/05 11:50:00;;;;;;;19.77;4.25;;;16.60;99.90;;;;;;5053643;28;20069;-67
2024/04/05 11:52:26;;;;;;;21.05;5.07;;;16.70;99.90;;;;;;5053728;28;20402;-68
2024/04/05 11:54:52;;;;;;;21.48;4.68;;;16.70;99.90;;;;;;5036644;28;20384;-67
2024/04/05 11:57:18;;;;;;;22.60;5.25;;;16.60;99.90;;;;;;5053368;28;20064;-68
2024/04/05 11:59:44;;;;;;;22.73;5.47;;;16.50;99.90;;;;;;5053705;28;20060;-68
2024/04/05 12:02:10;;;;;;;25.23;5.97;;;16.50;99.90;;;;;;5053255;28;20409;-63
2024/04/05 12:04:36;;;;;;;19.17;5.22;;;16.60;99.90;;;;;;5053661;28;20048;-63
2024/04/05 12:07:03;;;;;;;26.08;5.82;;;16.60;99.90;;;;;;5052652;28;20037;-63
2024/04/05 12:09:28;;;;;;;20.83;4.90;;;16.40;99.90;;;;;;5053202;28;20110;-63
2024/04/05 12:11:54;;;;;;;20.48;5.07;;;16.30;99.90;;;;;;5052942;28;20469;-68
2024/04/05 12:14:20;;;;;;;23.88;5.05;;;16.40;99.90;;;;;;5052785;28;20099;-68
2024/04/05 12:16:46;;;;;;;20.30;4.95;;;16.40;99.90;;;;;;5053057;28;20049;-68
2024/04/05 12:19:12;;;;;;;23.70;4.68;;;16.40;99.90;;;;;;5052596;28;20080;-66
2024/04/05 12:21:37;;;;;;;21.65;4.75;;;16.40;99.90;;;;;;5052357;28;20079;-66
2024/04/05 12:24:04;;;;;;;20.38;5.13;;;16.50;99.90;;;;;;5053103;28;20037;-67
2024/04/05 12:26:30;;;;;;;22.75;4.45;;;16.50;99.90;;;;;;5053299;28;20072;-68
2024/04/05 12:28:56;;;;;;;17.27;4.50;;;16.50;99.90;;;;;;5052985;28;20044;-69
2024/04/05 12:31:22;;;;;;;22.83;5.70;;;16.50;99.90;;;;;;5053403;28;20060;-69